sensor_id;sensor_type;location;lat;lon;timestamp;temperature;humidity
54576;DHT22;40472;53.486;14.542;2022-10-16T00:01:08;13.20;99.90
54576;DHT22;40472;53.486;14.542;2022-10-16T00:03:34;13.20;99.90
54576;DHT22;40472;53.486;14.542;2022-10-16T00:06:01;13.20;99.90
54576;DHT22;40472;53.486;14.542;2022-10-16T00:08:27;13.20;99.90
54576;DHT22;40472;53.486;14.542;2022-10-16T00:10:59;13.20;99.90
54576;DHT22;40472;53.486;14.542;2022-10-16T00:13:25;13.20;99.90
54576;DHT22;40472;53.486;14.542;2022-10-16T00:15:54;13.20;99.90
54576;DHT22;40472;53.486;14.542;2022-10-16T00:18:20;13.30;99.90
54576;DHT22;40472;53.486;14.542;2022-10-16T00:20:46;13.20;99.90
54576;DHT22;40472;53.486;14.542;2022-10-16T00:23:11;13.20;99.90
54576;DHT22;40472;53.486;14.542;2022-10-16T00:25:37;13.20;99.90
54576;DHT22;40472;53.486;14.542;2022-10-16T00:28:03;13.20;99.90
54576;DHT22;40472;53.486;14.542;2022-10-16T00:30:29;13.20;99.90
54576;DHT22;40472;53.486;14.542;2022-10-16T00:32:55;13.20;99.90
54576;DHT22;40472;53.486;14.542;2022-10-16T00:35:21;13.20;99.90
54576;DHT22;40472;53.486;14.542;2022-10-16T00:37:47;13.20;99.90
54576;DHT22;40472;53.486;14.542;2022-10-16T00:40:13;13.20;99.90
54576;DHT22;40472;53.486;14.542;2022-10-16T00:42:38;13.20;99.90
54576;DHT22;40472;53.486;14.542;2022-10-16T00:45:05;13.20;99.90
54576;DHT22;40472;53.486;14.542;2022-10-16T00:47:35;13.20;99.90
54576;DHT22;40472;53.486;14.542;2022-10-16T00:52:49;13.20;99.90
54576;DHT22;40472;53.486;14.542;2022-10-16T00:55:16;13.20;99.90
54576;DHT22;40472;53.486;14.542;2022-10-16T00:57:42;13.20;99.90
54576;DHT22;40472;53.486;14.542;2022-10-16T01:00:14;13.30;99.90
54576;DHT22;40472;53.486;14.542;2022-10-16T01:02:41;13.20;99.90
54576;DHT22;40472;53.486;14.542;2022-10-16T01:05:07;13.20;99.90
54576;DHT22;40472;53.486;14.542;2022-10-16T01:15:31;13.20;99.90
54576;DHT22;40472;53.486;14.542;2022-10-16T01:18:15;13.20;99.90
54576;DHT22;40472;53.486;14.542;2022-10-16T01:20:57;13.20;99.90
54576;DHT22;40472;53.486;14.542;2022-10-16T01:23:44;13.20;99.90
54576;DHT22;40472;53.486;14.542;2022-10-16T01:26:37;13.20;99.90
54576;DHT22;40472;53.486;14.542;2022-10-16T01:29:16;13.20;99.90
54576;DHT22;40472;53.486;14.542;2022-10-16T01:31:49;13.20;99.90
54576;DHT22;40472;53.486;14.542;2022-10-16T01:34:19;13.20;99.90
54576;DHT22;40472;53.486;14.542;2022-10-16T01:36:53;13.30;99.90
54576;DHT22;40472;53.486;14.542;2022-10-16T01:39:24;13.30;99.90
54576;DHT22;40472;53.486;14.542;2022-10-16T01:42:00;13.30;99.90
54576;DHT22;40472;53.486;14.542;2022-10-16T01:44:31;13.30;99.90
54576;DHT22;40472;53.486;14.542;2022-10-16T01:46:58;13.30;99.90
54576;DHT22;40472;53.486;14.542;2022-10-16T01:49:27;13.40;99.90
54576;DHT22;40472;53.486;14.542;2022-10-16T01:51:57;13.40;99.90
54576;DHT22;40472;53.486;14.542;2022-10-16T01:54:26;13.30;99.90
54576;DHT22;40472;53.486;14.542;2022-10-16T01:56:53;13.40;99.90
54576;DHT22;40472;53.486;14.542;2022-10-16T01:59:21;13.40;99.90
54576;DHT22;40472;53.486;14.542;2022-10-16T02:01:54;13.40;99.90
54576;DHT22;40472;53.486;14.542;2022-10-16T02:04:26;13.40;99.90
54576;DHT22;40472;53.486;14.542;2022-10-16T02:06:54;13.40;99.90
54576;DHT22;40472;53.486;14.542;2022-10-16T02:09:21;13.50;99.90
54576;DHT22;40472;53.486;14.542;2022-10-16T02:11:47;13.50;99.90
54576;DHT22;40472;53.486;14.542;2022-10-16T02:14:14;13.50;99.90
54576;DHT22;40472;53.486;14.542;2022-10-16T02:16:43;13.50;99.90
54576;DHT22;40472;53.486;14.542;2022-10-16T02:19:09;13.50;99.90
54576;DHT22;40472;53.486;14.542;2022-10-16T02:26:57;13.50;99.90
54576;DHT22;40472;53.486;14.542;2022-10-16T02:29:26;13.50;99.90
54576;DHT22;40472;53.486;14.542;2022-10-16T02:31:58;13.50;99.90
54576;DHT22;40472;53.486;14.542;2022-10-16T02:34:26;13.50;99.90
54576;DHT22;40472;53.486;14.542;2022-10-16T02:36:53;13.50;99.90
54576;DHT22;40472;53.486;14.542;2022-10-16T02:39:20;13.50;99.90
54576;DHT22;40472;53.486;14.542;2022-10-16T02:41:47;13.50;99.90
54576;DHT22;40472;53.486;14.542;2022-10-16T02:44:13;13.50;99.90
54576;DHT22;40472;53.486;14.542;2022-10-16T02:46:39;13.50;99.90
54576;DHT22;40472;53.486;14.542;2022-10-16T02:49:05;13.60;99.90
54576;DHT22;40472;53.486;14.542;2022-10-16T02:51:30;13.50;99.90
54576;DHT22;40472;53.486;14.542;2022-10-16T02:53:56;13.60;99.90
54576;DHT22;40472;53.486;14.542;2022-10-16T02:56:22;13.60;99.90
54576;DHT22;40472;53.486;14.542;2022-10-16T02:58:48;13.60;99.90
54576;DHT22;40472;53.486;14.542;2022-10-16T03:01:13;13.60;99.90
54576;DHT22;40472;53.486;14.542;2022-10-16T03:03:42;13.60;99.90
54576;DHT22;40472;53.486;14.542;2022-10-16T03:06:08;13.60;99.90
54576;DHT22;40472;53.486;14.542;2022-10-16T03:08:33;13.60;99.90
54576;DHT22;40472;53.486;14.542;2022-10-16T03:10:59;13.60;99.90
54576;DHT22;40472;53.486;14.542;2022-10-16T03:13:25;13.50;99.90
54576;DHT22;40472;53.486;14.542;2022-10-16T03:15:51;13.50;99.90
54576;DHT22;40472;53.486;14.542;2022-10-16T03:18:16;13.50;99.90
54576;DHT22;40472;53.486;14.542;2022-10-16T03:20:43;13.50;99.90
54576;DHT22;40472;53.486;14.542;2022-10-16T03:23:08;13.60;99.90
54576;DHT22;40472;53.486;14.542;2022-10-16T03:25:34;13.50;99.90
54576;DHT22;40472;53.486;14.542;2022-10-16T03:28:00;13.60;99.90
54576;DHT22;40472;53.486;14.542;2022-10-16T03:30:26;13.60;99.90
54576;DHT22;40472;53.486;14.542;2022-10-16T03:32:52;13.50;99.90
54576;DHT22;40472;53.486;14.542;2022-10-16T03:35:20;13.50;99.90
54576;DHT22;40472;53.486;14.542;2022-10-16T03:37:46;13.50;99.90
54576;DHT22;40472;53.486;14.542;2022-10-16T03:40:12;13.40;99.90
54576;DHT22;40472;53.486;14.542;2022-10-16T03:42:37;13.40;99.90
54576;DHT22;40472;53.486;14.542;2022-10-16T03:45:04;13.40;99.90
54576;DHT22;40472;53.486;14.542;2022-10-16T03:47:30;13.40;99.90
54576;DHT22;40472;53.486;14.542;2022-10-16T03:49:56;13.40;99.90
54576;DHT22;40472;53.486;14.542;2022-10-16T03:52:21;13.40;99.90
54576;DHT22;40472;53.486;14.542;2022-10-16T03:54:47;13.50;99.90
54576;DHT22;40472;53.486;14.542;2022-10-16T03:57:13;13.50;99.90
54576;DHT22;40472;53.486;14.542;2022-10-16T03:59:38;13.50;99.90
54576;DHT22;40472;53.486;14.542;2022-10-16T04:02:04;13.50;99.90
54576;DHT22;40472;53.486;14.542;2022-10-16T04:04:30;13.50;99.90
54576;DHT22;40472;53.486;14.542;2022-10-16T04:06:55;13.50;99.90
54576;DHT22;40472;53.486;14.542;2022-10-16T04:09:21;13.50;99.90
54576;DHT22;40472;53.486;14.542;2022-10-16T04:11:47;13.50;99.90
54576;DHT22;40472;53.486;14.542;2022-10-16T04:14:12;13.50;99.90
54576;DHT22;40472;53.486;14.542;2022-10-16T04:16:38;13.50;99.90
54576;DHT22;40472;53.486;14.542;2022-10-16T04:19:04;13.50;99.90
54576;DHT22;40472;53.486;14.542;2022-10-16T04:21:29;13.40;99.90
54576;DHT22;40472;53.486;14.542;2022-10-16T04:23:55;13.40;99.90
54576;DHT22;40472;53.486;14.542;2022-10-16T04:26:21;13.40;99.90
54576;DHT22;40472;53.486;14.542;2022-10-16T04:28:46;13.40;99.90
54576;DHT22;40472;53.486;14.542;2022-10-16T04:31:12;13.30;99.90
54576;DHT22;40472;53.486;14.542;2022-10-16T04:33:38;13.30;99.90
54576;DHT22;40472;53.486;14.542;2022-10-16T04:36:04;13.30;99.90
54576;DHT22;40472;53.486;14.542;2022-10-16T04:38:30;13.20;99.90
54576;DHT22;40472;53.486;14.542;2022-10-16T04:40:55;13.20;99.90
54576;DHT22;40472;53.486;14.542;2022-10-16T04:43:22;13.20;99.90
54576;DHT22;40472;53.486;14.542;2022-10-16T04:45:47;13.20;99.90
54576;DHT22;40472;53.486;14.542;2022-10-16T04:48:13;13.10;99.90
54576;DHT22;40472;53.486;14.542;2022-10-16T04:50:39;13.10;99.90
54576;DHT22;40472;53.486;14.542;2022-10-16T04:53:05;13.10;99.90
54576;DHT22;40472;53.486;14.542;2022-10-16T04:55:32;13.10;99.90
54576;DHT22;40472;53.486;14.542;2022-10-16T04:57:57;13.10;99.90
54576;DHT22;40472;53.486;14.542;2022-10-16T05:00:23;13.00;99.90
54576;DHT22;40472;53.486;14.542;2022-10-16T05:02:53;13.00;99.90
54576;DHT22;40472;53.486;14.542;2022-10-16T05:05:19;12.90;99.90
54576;DHT22;40472;53.486;14.542;2022-10-16T05:07:46;12.90;99.90
54576;DHT22;40472;53.486;14.542;2022-10-16T05:10:12;12.90;99.90
54576;DHT22;40472;53.486;14.542;2022-10-16T05:12:38;12.80;99.90
54576;DHT22;40472;53.486;14.542;2022-10-16T05:15:04;12.80;99.90
54576;DHT22;40472;53.486;14.542;2022-10-16T05:17:30;12.80;99.90
54576;DHT22;40472;53.486;14.542;2022-10-16T05:19:55;12.80;99.90
54576;DHT22;40472;53.486;14.542;2022-10-16T05:22:21;12.80;99.90
54576;DHT22;40472;53.486;14.542;2022-10-16T05:24:47;12.70;99.90
54576;DHT22;40472;53.486;14.542;2022-10-16T05:27:13;12.80;99.90
54576;DHT22;40472;53.486;14.542;2022-10-16T05:29:45;12.80;99.90
54576;DHT22;40472;53.486;14.542;2022-10-16T05:32:12;12.80;99.90
54576;DHT22;40472;53.486;14.542;2022-10-16T05:34:38;12.80;99.90
54576;DHT22;40472;53.486;14.542;2022-10-16T05:37:05;12.80;99.90
54576;DHT22;40472;53.486;14.542;2022-10-16T05:39:30;12.80;99.90
54576;DHT22;40472;53.486;14.542;2022-10-16T05:41:56;12.80;99.90
54576;DHT22;40472;53.486;14.542;2022-10-16T05:44:22;12.80;99.90
54576;DHT22;40472;53.486;14.542;2022-10-16T05:46:48;12.80;99.90
54576;DHT22;40472;53.486;14.542;2022-10-16T05:49:13;12.80;99.90
54576;DHT22;40472;53.486;14.542;2022-10-16T05:51:39;12.80;99.90
54576;DHT22;40472;53.486;14.542;2022-10-16T05:54:05;12.80;99.90
54576;DHT22;40472;53.486;14.542;2022-10-16T05:56:31;12.80;99.90
54576;DHT22;40472;53.486;14.542;2022-10-16T05:58:56;12.80;99.90
54576;DHT22;40472;53.486;14.542;2022-10-16T06:01:22;12.90;99.90
54576;DHT22;40472;53.486;14.542;2022-10-16T06:03:50;12.90;99.90
54576;DHT22;40472;53.486;14.542;2022-10-16T06:06:18;12.90;99.90
54576;DHT22;40472;53.486;14.542;2022-10-16T06:08:46;12.90;99.90
54576;DHT22;40472;53.486;14.542;2022-10-16T06:11:23;12.90;99.90
54576;DHT22;40472;53.486;14.542;2022-10-16T06:13:54;12.90;99.90
54576;DHT22;40472;53.486;14.542;2022-10-16T06:16:20;12.90;99.90
54576;DHT22;40472;53.486;14.542;2022-10-16T06:18:46;12.90;99.90
54576;DHT22;40472;53.486;14.542;2022-10-16T06:21:16;12.90;99.90
54576;DHT22;40472;53.486;14.542;2022-10-16T06:23:42;12.90;99.90
54576;DHT22;40472;53.486;14.542;2022-10-16T06:26:10;12.90;99.90
54576;DHT22;40472;53.486;14.542;2022-10-16T06:28:37;13.00;99.90
54576;DHT22;40472;53.486;14.542;2022-10-16T06:31:04;12.90;99.90
54576;DHT22;40472;53.486;14.542;2022-10-16T06:33:30;12.90;99.90
54576;DHT22;40472;53.486;14.542;2022-10-16T06:36:11;13.00;99.90
54576;DHT22;40472;53.486;14.542;2022-10-16T06:38:37;13.00;99.90
54576;DHT22;40472;53.486;14.542;2022-10-16T06:41:05;13.00;99.90
54576;DHT22;40472;53.486;14.542;2022-10-16T06:43:32;13.00;99.90
54576;DHT22;40472;53.486;14.542;2022-10-16T06:45:59;13.10;99.90
54576;DHT22;40472;53.486;14.542;2022-10-16T06:48:26;13.20;99.90
54576;DHT22;40472;53.486;14.542;2022-10-16T06:51:01;13.20;99.90
54576;DHT22;40472;53.486;14.542;2022-10-16T06:53:28;13.30;99.90
54576;DHT22;40472;53.486;14.542;2022-10-16T06:55:54;13.40;99.90
54576;DHT22;40472;53.486;14.542;2022-10-16T06:58:20;13.40;99.90
54576;DHT22;40472;53.486;14.542;2022-10-16T07:00:46;13.50;99.90
54576;DHT22;40472;53.486;14.542;2022-10-16T07:03:12;13.50;99.90
54576;DHT22;40472;53.486;14.542;2022-10-16T07:05:40;13.50;99.90
54576;DHT22;40472;53.486;14.542;2022-10-16T07:08:06;13.60;99.90
54576;DHT22;40472;53.486;14.542;2022-10-16T07:10:32;13.70;99.90
54576;DHT22;40472;53.486;14.542;2022-10-16T07:12:58;13.90;99.90
54576;DHT22;40472;53.486;14.542;2022-10-16T07:15:25;14.00;99.90
54576;DHT22;40472;53.486;14.542;2022-10-16T07:17:51;14.00;99.90
54576;DHT22;40472;53.486;14.542;2022-10-16T07:20:18;14.00;99.90
54576;DHT22;40472;53.486;14.542;2022-10-16T07:22:43;14.10;99.90
54576;DHT22;40472;53.486;14.542;2022-10-16T07:25:09;14.00;99.90
54576;DHT22;40472;53.486;14.542;2022-10-16T07:27:35;14.10;99.90
54576;DHT22;40472;53.486;14.542;2022-10-16T07:30:01;14.10;99.90
54576;DHT22;40472;53.486;14.542;2022-10-16T07:32:26;14.20;99.90
54576;DHT22;40472;53.486;14.542;2022-10-16T07:34:53;14.20;99.90
54576;DHT22;40472;53.486;14.542;2022-10-16T07:37:19;14.20;99.90
54576;DHT22;40472;53.486;14.542;2022-10-16T07:39:45;14.30;99.90
54576;DHT22;40472;53.486;14.542;2022-10-16T07:42:11;14.30;99.90
54576;DHT22;40472;53.486;14.542;2022-10-16T07:44:38;14.30;99.90
54576;DHT22;40472;53.486;14.542;2022-10-16T07:47:03;14.40;99.90
54576;DHT22;40472;53.486;14.542;2022-10-16T07:49:29;14.50;99.90
54576;DHT22;40472;53.486;14.542;2022-10-16T07:51:55;14.60;99.90
54576;DHT22;40472;53.486;14.542;2022-10-16T07:54:21;14.60;99.90
54576;DHT22;40472;53.486;14.542;2022-10-16T07:56:46;14.70;99.90
54576;DHT22;40472;53.486;14.542;2022-10-16T07:59:12;14.80;99.90
54576;DHT22;40472;53.486;14.542;2022-10-16T08:01:38;15.00;99.90
54576;DHT22;40472;53.486;14.542;2022-10-16T08:04:05;15.10;99.90
54576;DHT22;40472;53.486;14.542;2022-10-16T08:06:36;15.20;99.90
54576;DHT22;40472;53.486;14.542;2022-10-16T08:09:02;15.40;99.90
54576;DHT22;40472;53.486;14.542;2022-10-16T08:11:27;15.60;99.90
54576;DHT22;40472;53.486;14.542;2022-10-16T08:13:53;15.70;99.90
54576;DHT22;40472;53.486;14.542;2022-10-16T08:16:19;15.70;99.90
54576;DHT22;40472;53.486;14.542;2022-10-16T08:18:46;15.80;99.90
54576;DHT22;40472;53.486;14.542;2022-10-16T08:21:17;15.90;99.90
54576;DHT22;40472;53.486;14.542;2022-10-16T08:23:43;15.90;99.90
54576;DHT22;40472;53.486;14.542;2022-10-16T08:26:11;15.90;99.90
54576;DHT22;40472;53.486;14.542;2022-10-16T08:28:38;16.00;99.90
54576;DHT22;40472;53.486;14.542;2022-10-16T08:31:08;16.00;99.90
54576;DHT22;40472;53.486;14.542;2022-10-16T08:33:34;16.10;99.90
54576;DHT22;40472;53.486;14.542;2022-10-16T08:36:01;16.10;99.90
54576;DHT22;40472;53.486;14.542;2022-10-16T08:38:27;16.20;99.90
54576;DHT22;40472;53.486;14.542;2022-10-16T08:40:57;16.20;99.90
54576;DHT22;40472;53.486;14.542;2022-10-16T08:49:09;16.10;99.90
54576;DHT22;40472;53.486;14.542;2022-10-16T08:51:38;16.00;99.90
54576;DHT22;40472;53.486;14.542;2022-10-16T08:54:28;15.90;99.90
54576;DHT22;40472;53.486;14.542;2022-10-16T08:56:57;15.90;99.90
54576;DHT22;40472;53.486;14.542;2022-10-16T08:59:27;16.00;99.90
54576;DHT22;40472;53.486;14.542;2022-10-16T09:01:53;16.10;99.90
54576;DHT22;40472;53.486;14.542;2022-10-16T09:07:35;16.20;99.90
54576;DHT22;40472;53.486;14.542;2022-10-16T09:12:53;16.30;99.90
54576;DHT22;40472;53.486;14.542;2022-10-16T09:15:29;16.40;99.90
54576;DHT22;40472;53.486;14.542;2022-10-16T09:20:33;16.60;99.90
54576;DHT22;40472;53.486;14.542;2022-10-16T09:23:12;16.50;99.90
54576;DHT22;40472;53.486;14.542;2022-10-16T09:25:39;16.50;99.90
54576;DHT22;40472;53.486;14.542;2022-10-16T09:28:08;16.50;99.90
54576;DHT22;40472;53.486;14.542;2022-10-16T09:30:35;16.40;99.90
54576;DHT22;40472;53.486;14.542;2022-10-16T09:33:03;16.40;99.90
54576;DHT22;40472;53.486;14.542;2022-10-16T09:35:39;16.50;99.90
54576;DHT22;40472;53.486;14.542;2022-10-16T09:38:06;16.40;99.90
54576;DHT22;40472;53.486;14.542;2022-10-16T09:40:35;16.30;99.90
54576;DHT22;40472;53.486;14.542;2022-10-16T09:43:22;16.30;99.90
54576;DHT22;40472;53.486;14.542;2022-10-16T09:48:31;16.40;99.90
54576;DHT22;40472;53.486;14.542;2022-10-16T09:51:02;16.60;99.90
54576;DHT22;40472;53.486;14.542;2022-10-16T09:53:43;16.70;99.90
54576;DHT22;40472;53.486;14.542;2022-10-16T09:56:11;16.80;99.90
54576;DHT22;40472;53.486;14.542;2022-10-16T09:58:42;16.90;99.90
54576;DHT22;40472;53.486;14.542;2022-10-16T10:01:13;16.80;99.90
54576;DHT22;40472;53.486;14.542;2022-10-16T10:03:42;16.80;99.90
54576;DHT22;40472;53.486;14.542;2022-10-16T10:09:27;17.00;99.90
54576;DHT22;40472;53.486;14.542;2022-10-16T10:11:59;17.30;99.90
54576;DHT22;40472;53.486;14.542;2022-10-16T10:14:40;17.20;99.90
54576;DHT22;40472;53.486;14.542;2022-10-16T10:22:26;17.00;99.90
54576;DHT22;40472;53.486;14.542;2022-10-16T10:33:21;16.70;99.90
54576;DHT22;40472;53.486;14.542;2022-10-16T10:41:12;17.00;99.90
54576;DHT22;40472;53.486;14.542;2022-10-16T10:46:56;16.90;99.90
54576;DHT22;40472;53.486;14.542;2022-10-16T10:55:02;16.90;99.90
54576;DHT22;40472;53.486;14.542;2022-10-16T11:09:06;17.00;99.90
54576;DHT22;40472;53.486;14.542;2022-10-16T11:11:36;17.10;99.90
54576;DHT22;40472;53.486;14.542;2022-10-16T11:14:23;17.20;99.90
54576;DHT22;40472;53.486;14.542;2022-10-16T11:17:04;17.30;99.90
54576;DHT22;40472;53.486;14.542;2022-10-16T11:30:33;17.60;99.90
54576;DHT22;40472;53.486;14.542;2022-10-16T11:35:45;17.80;99.90
54576;DHT22;40472;53.486;14.542;2022-10-16T11:38:38;17.80;99.90
54576;DHT22;40472;53.486;14.542;2022-10-16T11:41:29;17.80;99.90
54576;DHT22;40472;53.486;14.542;2022-10-16T11:52:44;18.00;99.90
54576;DHT22;40472;53.486;14.542;2022-10-16T11:55:21;18.00;99.90
54576;DHT22;40472;53.486;14.542;2022-10-16T11:57:59;18.10;99.90
54576;DHT22;40472;53.486;14.542;2022-10-16T12:00:35;18.10;99.90
54576;DHT22;40472;53.486;14.542;2022-10-16T12:05:58;18.20;99.90
54576;DHT22;40472;53.486;14.542;2022-10-16T12:08:29;18.20;99.90
54576;DHT22;40472;53.486;14.542;2022-10-16T12:11:19;18.10;99.90
54576;DHT22;40472;53.486;14.542;2022-10-16T12:13:46;18.10;99.90
54576;DHT22;40472;53.486;14.542;2022-10-16T12:18:40;18.00;99.90
54576;DHT22;40472;53.486;14.542;2022-10-16T12:21:07;18.10;99.90
54576;DHT22;40472;53.486;14.542;2022-10-16T12:23:39;18.40;99.90
54576;DHT22;40472;53.486;14.542;2022-10-16T12:26:12;18.50;99.90
54576;DHT22;40472;53.486;14.542;2022-10-16T12:28:37;18.60;99.90
54576;DHT22;40472;53.486;14.542;2022-10-16T12:31:09;18.70;99.90
54576;DHT22;40472;53.486;14.542;2022-10-16T12:33:56;18.60;99.90
54576;DHT22;40472;53.486;14.542;2022-10-16T12:36:35;18.50;99.90
54576;DHT22;40472;53.486;14.542;2022-10-16T12:39:02;18.30;99.90
54576;DHT22;40472;53.486;14.542;2022-10-16T12:41:33;18.20;99.90
54576;DHT22;40472;53.486;14.542;2022-10-16T12:44:02;18.10;99.90
54576;DHT22;40472;53.486;14.542;2022-10-16T12:49:29;18.00;99.90
54576;DHT22;40472;53.486;14.542;2022-10-16T12:51:56;18.20;99.90
54576;DHT22;40472;53.486;14.542;2022-10-16T12:54:48;18.50;99.90
54576;DHT22;40472;53.486;14.542;2022-10-16T13:09:14;19.00;99.90
54576;DHT22;40472;53.486;14.542;2022-10-16T13:12:14;18.80;99.90
54576;DHT22;40472;53.486;14.542;2022-10-16T13:20:54;18.10;99.90
54576;DHT22;40472;53.486;14.542;2022-10-16T13:23:59;18.00;99.90
54576;DHT22;40472;53.486;14.542;2022-10-16T13:26:49;17.80;99.90
54576;DHT22;40472;53.486;14.542;2022-10-16T13:29:18;17.80;99.90
54576;DHT22;40472;53.486;14.542;2022-10-16T13:31:45;17.80;99.90
54576;DHT22;40472;53.486;14.542;2022-10-16T13:34:18;17.80;99.90
54576;DHT22;40472;53.486;14.542;2022-10-16T13:36:49;17.90;99.90
54576;DHT22;40472;53.486;14.542;2022-10-16T13:39:23;18.10;99.90
54576;DHT22;40472;53.486;14.542;2022-10-16T13:42:11;18.30;99.90
54576;DHT22;40472;53.486;14.542;2022-10-16T13:44:46;18.40;99.90
54576;DHT22;40472;53.486;14.542;2022-10-16T13:47:20;18.50;99.90
54576;DHT22;40472;53.486;14.542;2022-10-16T13:49:47;18.70;99.90
54576;DHT22;40472;53.486;14.542;2022-10-16T13:52:23;18.80;99.90
54576;DHT22;40472;53.486;14.542;2022-10-16T13:54:49;18.80;99.90
54576;DHT22;40472;53.486;14.542;2022-10-16T13:57:16;18.70;99.90
54576;DHT22;40472;53.486;14.542;2022-10-16T13:59:43;18.80;99.90
54576;DHT22;40472;53.486;14.542;2022-10-16T14:02:33;18.70;99.90
54576;DHT22;40472;53.486;14.542;2022-10-16T14:05:02;18.70;99.90
54576;DHT22;40472;53.486;14.542;2022-10-16T14:07:33;18.70;99.90
54576;DHT22;40472;53.486;14.542;2022-10-16T14:10:03;18.60;99.90
54576;DHT22;40472;53.486;14.542;2022-10-16T14:12:30;18.60;99.90
54576;DHT22;40472;53.486;14.542;2022-10-16T14:14:59;18.70;99.90
54576;DHT22;40472;53.486;14.542;2022-10-16T14:17:32;18.60;99.90
54576;DHT22;40472;53.486;14.542;2022-10-16T14:20:00;18.60;99.90
54576;DHT22;40472;53.486;14.542;2022-10-16T14:24:53;18.50;99.90
54576;DHT22;40472;53.486;14.542;2022-10-16T14:27:31;18.60;99.90
54576;DHT22;40472;53.486;14.542;2022-10-16T14:30:20;18.50;99.90
54576;DHT22;40472;53.486;14.542;2022-10-16T14:33:05;18.60;99.90
54576;DHT22;40472;53.486;14.542;2022-10-16T14:35:38;18.60;99.90
54576;DHT22;40472;53.486;14.542;2022-10-16T14:38:06;18.60;99.90
54576;DHT22;40472;53.486;14.542;2022-10-16T14:40:35;18.60;99.90
54576;DHT22;40472;53.486;14.542;2022-10-16T14:43:02;18.50;99.90
54576;DHT22;40472;53.486;14.542;2022-10-16T14:45:32;18.60;99.90
54576;DHT22;40472;53.486;14.542;2022-10-16T14:48:03;18.50;99.90
54576;DHT22;40472;53.486;14.542;2022-10-16T14:50:29;18.40;99.90
54576;DHT22;40472;53.486;14.542;2022-10-16T14:52:55;18.30;99.90
54576;DHT22;40472;53.486;14.542;2022-10-16T14:55:21;18.30;99.90
54576;DHT22;40472;53.486;14.542;2022-10-16T14:57:47;18.20;99.90
54576;DHT22;40472;53.486;14.542;2022-10-16T15:00:19;18.20;99.90
54576;DHT22;40472;53.486;14.542;2022-10-16T15:02:47;18.20;99.90
54576;DHT22;40472;53.486;14.542;2022-10-16T15:05:23;18.20;99.90
54576;DHT22;40472;53.486;14.542;2022-10-16T15:07:50;18.00;99.90
54576;DHT22;40472;53.486;14.542;2022-10-16T15:10:17;18.00;99.90
54576;DHT22;40472;53.486;14.542;2022-10-16T15:12:43;17.90;99.90
54576;DHT22;40472;53.486;14.542;2022-10-16T15:15:33;17.90;99.90
54576;DHT22;40472;53.486;14.542;2022-10-16T15:18:01;17.80;99.90
54576;DHT22;40472;53.486;14.542;2022-10-16T15:20:30;17.70;99.90
54576;DHT22;40472;53.486;14.542;2022-10-16T15:23:02;17.70;99.90
54576;DHT22;40472;53.486;14.542;2022-10-16T15:25:52;17.50;99.90
54576;DHT22;40472;53.486;14.542;2022-10-16T15:28:19;17.40;99.90
54576;DHT22;40472;53.486;14.542;2022-10-16T15:30:46;17.30;99.90
54576;DHT22;40472;53.486;14.542;2022-10-16T15:33:17;17.30;99.90
54576;DHT22;40472;53.486;14.542;2022-10-16T15:35:47;17.20;99.90
54576;DHT22;40472;53.486;14.542;2022-10-16T15:38:14;17.10;99.90
54576;DHT22;40472;53.486;14.542;2022-10-16T15:40:41;17.00;99.90
54576;DHT22;40472;53.486;14.542;2022-10-16T15:43:07;17.00;99.90
54576;DHT22;40472;53.486;14.542;2022-10-16T15:45:33;16.90;99.90
54576;DHT22;40472;53.486;14.542;2022-10-16T15:47:59;16.80;99.90
54576;DHT22;40472;53.486;14.542;2022-10-16T15:50:25;16.70;99.90
54576;DHT22;40472;53.486;14.542;2022-10-16T15:52:51;16.60;99.90
54576;DHT22;40472;53.486;14.542;2022-10-16T15:55:20;16.60;99.90
54576;DHT22;40472;53.486;14.542;2022-10-16T15:57:46;16.50;99.90
54576;DHT22;40472;53.486;14.542;2022-10-16T16:00:14;16.40;99.90
54576;DHT22;40472;53.486;14.542;2022-10-16T16:02:41;16.40;99.90
54576;DHT22;40472;53.486;14.542;2022-10-16T16:05:08;16.30;99.90
54576;DHT22;40472;53.486;14.542;2022-10-16T16:07:35;16.20;99.90
54576;DHT22;40472;53.486;14.542;2022-10-16T16:10:03;16.10;99.90
54576;DHT22;40472;53.486;14.542;2022-10-16T16:12:29;16.00;99.90
54576;DHT22;40472;53.486;14.542;2022-10-16T16:14:55;15.90;99.90
54576;DHT22;40472;53.486;14.542;2022-10-16T16:17:21;15.90;99.90
54576;DHT22;40472;53.486;14.542;2022-10-16T16:19:46;15.80;99.90
54576;DHT22;40472;53.486;14.542;2022-10-16T16:22:12;15.70;99.90
54576;DHT22;40472;53.486;14.542;2022-10-16T16:24:38;15.60;99.90
54576;DHT22;40472;53.486;14.542;2022-10-16T16:27:04;15.60;99.90
54576;DHT22;40472;53.486;14.542;2022-10-16T16:29:30;15.50;99.90
54576;DHT22;40472;53.486;14.542;2022-10-16T16:31:55;15.40;99.90
54576;DHT22;40472;53.486;14.542;2022-10-16T16:34:26;15.30;99.90
54576;DHT22;40472;53.486;14.542;2022-10-16T16:36:53;15.20;99.90
54576;DHT22;40472;53.486;14.542;2022-10-16T16:39:19;15.10;99.90
54576;DHT22;40472;53.486;14.542;2022-10-16T16:41:45;15.10;99.90
54576;DHT22;40472;53.486;14.542;2022-10-16T16:44:11;15.10;99.90
54576;DHT22;40472;53.486;14.542;2022-10-16T16:46:38;14.90;99.90
54576;DHT22;40472;53.486;14.542;2022-10-16T16:49:06;14.80;99.90
54576;DHT22;40472;53.486;14.542;2022-10-16T16:51:32;14.70;99.90
54576;DHT22;40472;53.486;14.542;2022-10-16T16:53:59;14.60;99.90
54576;DHT22;40472;53.486;14.542;2022-10-16T16:56:25;14.30;99.90
54576;DHT22;40472;53.486;14.542;2022-10-16T16:58:53;14.10;99.90
54576;DHT22;40472;53.486;14.542;2022-10-16T17:01:22;13.90;99.90
54576;DHT22;40472;53.486;14.542;2022-10-16T17:03:51;13.70;99.90
54576;DHT22;40472;53.486;14.542;2022-10-16T17:06:24;13.60;99.90
54576;DHT22;40472;53.486;14.542;2022-10-16T17:08:51;13.40;99.90
54576;DHT22;40472;53.486;14.542;2022-10-16T17:11:19;13.30;99.90
54576;DHT22;40472;53.486;14.542;2022-10-16T17:13:45;13.30;99.90
54576;DHT22;40472;53.486;14.542;2022-10-16T17:16:12;13.20;99.90
54576;DHT22;40472;53.486;14.542;2022-10-16T17:18:38;13.20;99.90
54576;DHT22;40472;53.486;14.542;2022-10-16T17:21:06;13.30;99.90
54576;DHT22;40472;53.486;14.542;2022-10-16T17:23:34;13.40;99.90
54576;DHT22;40472;53.486;14.542;2022-10-16T17:26:06;13.40;99.90
54576;DHT22;40472;53.486;14.542;2022-10-16T17:28:33;13.20;99.90
54576;DHT22;40472;53.486;14.542;2022-10-16T17:33:36;12.90;99.90
54576;DHT22;40472;53.486;14.542;2022-10-16T17:36:03;12.70;99.90